Mito, Japan
Current Conditions -  °F | °C
As of 3:00 PM on Saturday 29 Nov 2014 (Local Time) from RJAH Reporting Station
Haze Haze  
Wind Chill: 57°   Ceiling: 400
Heat Index: 57°   Visibility: 1.8mi
Dew Point: 54°   Wind: 7mph
Humidity: 88%   Direction: 240°WSW
Pressure: 29.8"   Gusts: NA
Location:  36.38°N, 140.47°E
Report Text: RJAH 290600Z 24006KT 3000 BR FEW002 BKN004 BKN100 14/12 Q1009
Loading
Personal Weather Stations






























Interactive Weather Map New forecast layout! Learn more

10-Day Weather Forecast

Advertisements
Track Severe Weather on mobile